Time;durP1;ratioP1;P1;durP2;ratioP2;P2;SDS_P1;SDS_P2;PMS_P1;PMS_P2;Temp;Humidity;BMP_temperature;BMP_pressure;BME280_temperature;BME280_humidity;BME280_pressure;Samples;Min_cycle;Max_cycle;Signal;HPM_P1;HPM_P2
2022/12/03 00:00:35;;;;;;;0.10;0.10;;;1.90;99.90;;;;;;5067222;28;20230;-81
2022/12/03 00:03:01;;;;;;;0.10;0.10;;;1.90;99.90;;;;;;5067424;28;20679;-81
2022/12/03 00:05:26;;;;;;;0.10;0.10;;;1.90;99.90;;;;;;5066186;28;20804;-81
2022/12/03 00:07:52;;;;;;;0.10;0.10;;;1.90;99.90;;;;;;5067737;28;20185;-80
2022/12/03 00:10:18;;;;;;;0.10;0.10;;;2.00;99.90;;;;;;5065687;28;20191;-80
2022/12/03 00:12:43;;;;;;;0.10;0.10;;;2.00;99.90;;;;;;5065323;28;20222;-81
2022/12/03 00:15:09;;;;;;;0.10;0.10;;;2.00;99.90;;;;;;5066640;28;20213;-81
2022/12/03 00:17:35;;;;;;;0.10;0.10;;;1.90;99.90;;;;;;5067513;28;20184;-81
2022/12/03 00:20:01;;;;;;;0.10;0.10;;;2.00;99.90;;;;;;5067943;28;20658;-81
2022/12/03 00:22:26;;;;;;;0.00;0.00;;;2.00;99.90;;;;;;5068829;28;20671;-80
2022/12/03 00:24:52;;;;;;;0.10;0.10;;;2.10;99.90;;;;;;5065506;28;20344;-80
2022/12/03 00:27:17;;;;;;;0.00;0.00;;;2.10;99.90;;;;;;5065999;28;20181;-81
2022/12/03 00:29:43;;;;;;;0.10;0.10;;;2.10;99.90;;;;;;5066282;28;20192;-81
2022/12/03 00:32:08;;;;;;;0.10;0.10;;;2.10;99.90;;;;;;5067488;28;20201;-81
2022/12/03 00:34:34;;;;;;;0.10;0.10;;;2.10;99.90;;;;;;5066070;28;20209;-81
2022/12/03 00:37:00;;;;;;;0.10;0.10;;;2.10;99.90;;;;;;5067685;28;20201;-81
2022/12/03 00:39:25;;;;;;;0.10;0.10;;;2.10;99.90;;;;;;5066401;28;20196;-81
2022/12/03 00:41:51;;;;;;;0.10;0.10;;;2.10;99.90;;;;;;5066200;28;20260;-80
2022/12/03 00:44:16;;;;;;;0.10;0.10;;;2.10;99.90;;;;;;5066239;28;20289;-81
2022/12/03 00:46:42;;;;;;;0.10;0.10;;;2.10;99.90;;;;;;5065721;28;21332;-81
2022/12/03 00:49:07;;;;;;;0.10;0.10;;;2.10;99.90;;;;;;5066811;28;21157;-81
2022/12/03 00:51:33;;;;;;;0.10;0.10;;;2.10;99.90;;;;;;5066359;28;20559;-81
2022/12/03 00:53:58;;;;;;;1.13;1.13;;;2.10;99.90;;;;;;5065951;28;20208;-81
2022/12/03 00:56:24;;;;;;;0.10;0.10;;;2.10;99.90;;;;;;5064929;28;20214;-81
2022/12/03 00:58:49;;;;;;;0.10;0.10;;;2.10;99.90;;;;;;5066189;28;20180;-80
2022/12/03 01:01:15;;;;;;;0.10;0.10;;;2.10;99.90;;;;;;5066384;28;20180;-81
2022/12/03 01:03:40;;;;;;;0.10;0.10;;;2.20;99.90;;;;;;5065993;28;20192;-81
2022/12/03 01:06:06;;;;;;;0.07;0.07;;;2.10;99.90;;;;;;5065645;28;20262;-81
2022/12/03 01:08:32;;;;;;;0.10;0.10;;;2.20;99.90;;;;;;5066998;28;20190;-81
2022/12/03 01:10:57;;;;;;;0.10;0.10;;;2.20;99.90;;;;;;5064877;28;20187;-81
2022/12/03 01:13:23;;;;;;;0.30;0.30;;;2.20;99.90;;;;;;5065485;28;20758;-81
2022/12/03 01:15:48;;;;;;;0.10;0.10;;;2.20;99.90;;;;;;5064462;28;20221;-81
2022/12/03 01:18:14;;;;;;;0.07;0.07;;;2.30;99.90;;;;;;5065979;28;20559;-81
2022/12/03 01:20:40;;;;;;;0.10;0.10;;;2.20;99.90;;;;;;5066897;28;20534;-81
2022/12/03 01:23:05;;;;;;;0.10;0.10;;;2.30;99.90;;;;;;5064790;28;20186;-81
2022/12/03 01:25:31;;;;;;;0.30;0.30;;;2.30;99.90;;;;;;5065477;28;20212;-81
2022/12/03 01:27:56;;;;;;;2.00;1.90;;;2.20;99.90;;;;;;5066573;28;20196;-80
2022/12/03 01:30:22;;;;;;;0.10;0.10;;;2.20;99.90;;;;;;5066554;28;20664;-81
2022/12/03 01:32:47;;;;;;;0.00;0.00;;;2.30;99.90;;;;;;5065523;28;20184;-81
2022/12/03 01:35:13;;;;;;;0.00;0.00;;;2.30;99.90;;;;;;5066091;28;20225;-80
2022/12/03 01:37:38;;;;;;;0.10;0.10;;;2.30;99.90;;;;;;5066345;28;20203;-81
2022/12/03 01:40:06;;;;;;;0.10;0.10;;;2.40;99.90;;;;;;5065322;28;20173;-81
2022/12/03 01:42:39;;;;;;;0.10;0.10;;;2.30;99.90;;;;;;5064748;28;20177;-81
2022/12/03 01:45:06;;;;;;;0.10;0.10;;;2.40;99.90;;;;;;5081571;28;20669;-80
2022/12/03 01:47:35;;;;;;;0.10;0.10;;;2.40;99.90;;;;;;5065143;28;21136;-81
2022/12/03 01:50:17;;;;;;;0.23;0.23;;;2.40;99.90;;;;;;5081536;28;20420;-80
2022/12/03 01:52:43;;;;;;;0.10;0.10;;;2.30;99.90;;;;;;5064491;28;20672;-81
2022/12/03 01:55:13;;;;;;;0.10;0.10;;;2.40;99.90;;;;;;5065136;28;20241;-81
2022/12/03 01:57:40;;;;;;;0.10;0.10;;;2.40;99.90;;;;;;5065285;28;20174;-80
2022/12/03 02:00:15;;;;;;;0.10;0.10;;;2.30;99.90;;;;;;5065163;28;20261;-81
2022/12/03 02:02:41;;;;;;;0.10;0.10;;;2.40;99.90;;;;;;5065040;28;20260;-81
2022/12/03 02:05:15;;;;;;;0.10;0.10;;;2.40;99.90;;;;;;5066423;28;20308;-81
2022/12/03 02:07:41;;;;;;;0.00;0.00;;;2.40;99.90;;;;;;5080546;28;20197;-80
2022/12/03 02:10:07;;;;;;;4.57;4.33;;;2.40;99.90;;;;;;5064533;28;20192;-80
2022/12/03 02:12:37;;;;;;;0.10;0.10;;;2.40;99.90;;;;;;5066268;28;20201;-81
2022/12/03 02:15:04;;;;;;;0.00;0.00;;;2.40;99.90;;;;;;5066203;28;20221;-81
2022/12/03 02:17:30;;;;;;;0.10;0.10;;;2.50;99.90;;;;;;5065109;28;20179;-81
2022/12/03 02:19:57;;;;;;;0.57;0.57;;;2.40;99.90;;;;;;5065129;28;20242;-81
2022/12/03 02:22:39;;;;;;;0.10;0.10;;;2.40;99.90;;;;;;5063509;28;20226;-81
2022/12/03 02:25:10;;;;;;;2.27;2.13;;;2.40;99.90;;;;;;5080339;28;20376;-81
2022/12/03 02:27:36;;;;;;;0.10;0.10;;;2.40;99.90;;;;;;5064961;28;20208;-81
2022/12/03 02:30:04;;;;;;;0.10;0.10;;;2.50;99.90;;;;;;5064875;28;20662;-80
2022/12/03 02:32:29;;;;;;;0.10;0.10;;;2.50;99.90;;;;;;5064651;28;20190;-81
2022/12/03 02:34:55;;;;;;;0.10;0.10;;;2.60;99.90;;;;;;5064269;28;20232;-81
2022/12/03 02:37:29;;;;;;;1.03;1.03;;;2.50;99.90;;;;;;5064995;28;20187;-81
2022/12/03 02:39:58;;;;;;;0.10;0.10;;;2.40;99.90;;;;;;5065358;28;20183;-81
2022/12/03 02:42:36;;;;;;;0.10;0.10;;;2.50;99.90;;;;;;5064308;28;20189;-80
2022/12/03 02:45:07;;;;;;;0.10;0.10;;;2.50;99.90;;;;;;5063190;28;21223;-81
2022/12/03 02:47:36;;;;;;;0.10;0.10;;;2.40;99.90;;;;;;5064266;28;20179;-81
2022/12/03 02:50:03;;;;;;;0.10;0.10;;;2.40;99.90;;;;;;5080772;28;20199;-80
2022/12/03 02:52:29;;;;;;;0.00;0.00;;;2.40;99.90;;;;;;5063063;28;20181;-81
2022/12/03 02:54:54;;;;;;;0.10;0.10;;;2.40;99.90;;;;;;5062986;28;20220;-81
2022/12/03 02:57:20;;;;;;;0.10;0.10;;;2.40;99.90;;;;;;5063779;28;20194;-81
2022/12/03 02:59:46;;;;;;;0.20;0.20;;;2.40;99.90;;;;;;5064670;28;20249;-81
2022/12/03 03:02:13;;;;;;;3.73;2.00;;;2.40;99.90;;;;;;5062178;28;20661;-81
2022/12/03 03:04:40;;;;;;;0.10;0.10;;;2.40;99.90;;;;;;5063120;28;21107;-81
2022/12/03 03:07:05;;;;;;;0.10;0.10;;;2.40;99.90;;;;;;5062005;28;20189;-80
2022/12/03 03:09:32;;;;;;;0.07;0.07;;;2.40;99.90;;;;;;5063117;28;20302;-80
2022/12/03 03:11:58;;;;;;;0.97;0.97;;;2.40;99.90;;;;;;5064270;28;20559;-81
2022/12/03 03:14:24;;;;;;;0.00;0.00;;;2.40;99.90;;;;;;5062649;28;20208;-81
2022/12/03 03:16:54;;;;;;;0.10;0.10;;;2.40;99.90;;;;;;5078356;28;20207;-81
2022/12/03 03:19:23;;;;;;;0.83;0.83;;;2.40;99.90;;;;;;5063272;28;21020;-81
2022/12/03 03:21:49;;;;;;;0.00;0.00;;;2.40;99.90;;;;;;5061884;28;20293;-81
2022/12/03 03:24:15;;;;;;;0.10;0.10;;;2.40;99.90;;;;;;5064599;28;20592;-81
2022/12/03 03:26:40;;;;;;;0.10;0.10;;;2.40;99.90;;;;;;5064213;28;20284;-81
2022/12/03 03:29:06;;;;;;;0.20;0.20;;;2.50;99.90;;;;;;5064138;28;20269;-81
2022/12/03 03:31:32;;;;;;;0.10;0.10;;;2.40;99.90;;;;;;5062983;28;20721;-81
2022/12/03 03:33:57;;;;;;;0.00;0.00;;;2.40;99.90;;;;;;5064753;28;20196;-81
2022/12/03 03:36:24;;;;;;;0.10;0.10;;;2.40;99.90;;;;;;5061865;28;20207;-81
2022/12/03 03:38:51;;;;;;;6.17;4.13;;;2.40;99.90;;;;;;5063012;28;20186;-81
2022/12/03 03:41:19;;;;;;;0.10;0.10;;;2.40;99.90;;;;;;5062130;28;20192;-81
2022/12/03 03:43:45;;;;;;;0.10;0.10;;;2.40;99.90;;;;;;5063986;28;20246;-81
2022/12/03 03:46:12;;;;;;;0.10;0.10;;;2.40;99.90;;;;;;5062065;28;20303;-81
2022/12/03 03:48:39;;;;;;;0.10;0.10;;;2.40;99.90;;;;;;5064021;28;20189;-81
2022/12/03 03:51:08;;;;;;;0.10;0.10;;;2.40;99.90;;;;;;5063612;28;20195;-80
2022/12/03 03:53:38;;;;;;;0.10;0.10;;;2.40;99.90;;;;;;5063010;28;20297;-81
2022/12/03 03:56:04;;;;;;;0.10;0.10;;;2.30;99.90;;;;;;5062915;28;20266;-82
2022/12/03 03:58:30;;;;;;;0.00;0.00;;;2.40;99.90;;;;;;5081313;28;20182;-81
2022/12/03 04:00:56;;;;;;;0.10;0.10;;;2.40;99.90;;;;;;5065243;28;20533;-81
2022/12/03 04:03:21;;;;;;;0.53;0.53;;;2.30;99.90;;;;;;5063703;28;20181;-81
2022/12/03 04:05:49;;;;;;;0.10;0.10;;;2.40;99.90;;;;;;5062859;28;20213;-81
2022/12/03 04:08:15;;;;;;;0.10;0.10;;;2.40;99.90;;;;;;5065146;28;20179;-81
2022/12/03 04:13:25;;;;;;;0.10;0.10;;;2.40;99.90;;;;;;5064946;28;20220;-80
2022/12/03 04:15:50;;;;;;;0.00;0.00;;;2.40;99.90;;;;;;5063940;28;20213;-81
2022/12/03 04:23:44;;;;;;;0.10;0.10;;;2.30;99.90;;;;;;5064734;28;20282;-81
2022/12/03 04:28:54;;;;;;;0.07;0.07;;;2.30;99.90;;;;;;5067911;28;20191;-81
2022/12/03 04:36:48;;;;;;;0.10;0.10;;;2.40;99.90;;;;;;5067335;28;20212;-81
2022/12/03 04:39:13;;;;;;;0.10;0.10;;;2.30;99.90;;;;;;5067269;28;20185;-81
2022/12/03 04:41:39;;;;;;;0.93;0.93;;;2.40;99.90;;;;;;5068089;28;20244;-81
2022/12/03 04:46:48;;;;;;;0.10;0.10;;;2.30;99.90;;;;;;5067476;28;20232;-81
2022/12/03 04:49:14;;;;;;;0.00;0.00;;;2.30;99.90;;;;;;5067409;28;20209;-80
2022/12/03 04:51:39;;;;;;;0.30;0.30;;;2.30;99.90;;;;;;5065669;28;20181;-81
2022/12/03 04:54:05;;;;;;;0.00;0.00;;;2.20;99.90;;;;;;5066849;28;20224;-81
2022/12/03 04:56:31;;;;;;;0.10;0.10;;;2.30;99.90;;;;;;5065434;28;20675;-81
2022/12/03 04:58:56;;;;;;;0.10;0.10;;;2.20;99.90;;;;;;5065810;28;20217;-81
2022/12/03 05:01:22;;;;;;;0.00;0.00;;;2.30;99.90;;;;;;5066751;28;20185;-81
2022/12/03 05:03:47;;;;;;;0.10;0.10;;;2.30;99.90;;;;;;5067097;28;20185;-81
2022/12/03 05:06:13;;;;;;;0.10;0.10;;;2.30;99.90;;;;;;5067953;28;20274;-80
2022/12/03 05:08:38;;;;;;;0.10;0.10;;;2.20;99.90;;;;;;5065234;28;20184;-80
2022/12/03 05:11:04;;;;;;;0.10;0.10;;;2.30;99.90;;;;;;5066141;28;20259;-81
2022/12/03 05:13:30;;;;;;;0.07;0.07;;;2.20;99.90;;;;;;5065939;28;20288;-80
2022/12/03 05:15:55;;;;;;;0.00;0.00;;;2.30;99.90;;;;;;5066587;28;20221;-80
2022/12/03 05:18:21;;;;;;;0.10;0.10;;;2.30;99.90;;;;;;5066184;28;20195;-80
2022/12/03 05:20:46;;;;;;;0.10;0.10;;;2.30;99.90;;;;;;5066225;28;20186;-80
2022/12/03 05:23:13;;;;;;;0.10;0.10;;;2.30;99.90;;;;;;5066912;28;20191;-80
2022/12/03 05:25:39;;;;;;;0.00;0.00;;;2.30;99.90;;;;;;5067753;28;20204;-80
2022/12/03 05:28:05;;;;;;;0.00;0.00;;;2.30;99.90;;;;;;5066806;28;20196;-79
2022/12/03 05:30:31;;;;;;;0.10;0.10;;;2.30;99.90;;;;;;5066277;28;20596;-81
2022/12/03 05:32:57;;;;;;;0.10;0.10;;;2.30;99.90;;;;;;5064244;28;20196;-80
2022/12/03 05:35:23;;;;;;;0.33;0.33;;;2.30;99.90;;;;;;5066083;28;20227;-80
2022/12/03 05:37:48;;;;;;;0.00;0.00;;;2.20;99.90;;;;;;5082236;28;20223;-80
2022/12/03 05:40:14;;;;;;;0.10;0.10;;;2.20;99.90;;;;;;5065179;28;20203;-80
2022/12/03 05:43:00;;;;;;;0.10;0.10;;;2.30;99.90;;;;;;5066005;28;20218;-80
2022/12/03 05:45:26;;;;;;;0.10;0.10;;;2.30;99.90;;;;;;5065128;28;20209;-80
2022/12/03 05:47:53;;;;;;;0.00;0.00;;;2.40;99.90;;;;;;5081894;28;20281;-80
2022/12/03 05:50:20;;;;;;;0.00;0.00;;;2.30;99.90;;;;;;5065356;28;20190;-81
2022/12/03 05:52:46;;;;;;;0.10;0.10;;;2.30;99.90;;;;;;5065412;28;20186;-81
2022/12/03 05:55:12;;;;;;;0.10;0.10;;;2.30;99.90;;;;;;5065228;28;20227;-81
2022/12/03 05:57:38;;;;;;;0.00;0.00;;;2.30;99.90;;;;;;5065599;28;20181;-81
2022/12/03 06:00:06;;;;;;;0.03;0.03;;;2.20;99.90;;;;;;5065990;28;20973;-80
2022/12/03 06:02:33;;;;;;;0.10;0.10;;;2.20;99.90;;;;;;5064353;28;20362;-80
2022/12/03 06:04:58;;;;;;;0.20;0.20;;;2.10;99.90;;;;;;5063252;28;20209;-78
2022/12/03 06:07:24;;;;;;;0.10;0.10;;;2.10;99.90;;;;;;5062689;28;20192;-80
2022/12/03 06:09:49;;;;;;;0.10;0.10;;;2.10;99.90;;;;;;5066647;28;20536;-80
2022/12/03 06:12:15;;;;;;;0.10;0.10;;;2.20;99.90;;;;;;5065413;28;20635;-80
2022/12/03 06:14:41;;;;;;;0.10;0.10;;;2.10;99.90;;;;;;5066162;28;20218;-80
2022/12/03 06:17:06;;;;;;;0.10;0.10;;;2.10;99.90;;;;;;5065155;28;20181;-80
2022/12/03 06:19:32;;;;;;;0.10;0.10;;;2.10;99.90;;;;;;5066892;28;21219;-80
2022/12/03 06:21:58;;;;;;;0.03;0.03;;;2.20;99.90;;;;;;5065677;28;20180;-80
2022/12/03 06:24:23;;;;;;;0.10;0.10;;;2.20;99.90;;;;;;5062530;28;20205;-80
2022/12/03 06:26:49;;;;;;;0.10;0.10;;;2.20;99.90;;;;;;5064377;28;20205;-84
2022/12/03 06:29:14;;;;;;;0.10;0.10;;;2.20;99.90;;;;;;5063387;28;20222;-82
2022/12/03 06:31:40;;;;;;;0.10;0.10;;;2.20;99.90;;;;;;5064583;28;20189;-83
2022/12/03 06:34:05;;;;;;;0.73;0.73;;;2.20;99.90;;;;;;5064380;28;20193;-82
2022/12/03 06:36:31;;;;;;;0.13;0.13;;;2.10;99.90;;;;;;5063775;28;20209;-82
2022/12/03 06:38:57;;;;;;;0.10;0.10;;;2.10;99.90;;;;;;5065472;28;20194;-80
2022/12/03 06:41:22;;;;;;;0.10;0.10;;;2.10;99.90;;;;;;5060341;28;20189;-81
2022/12/03 06:43:48;;;;;;;0.10;0.10;;;2.10;99.90;;;;;;5063339;28;20494;-79
2022/12/03 06:46:13;;;;;;;0.00;0.00;;;2.10;99.90;;;;;;5063266;28;20215;-81
2022/12/03 06:48:39;;;;;;;0.10;0.10;;;2.20;99.90;;;;;;5065745;28;20256;-82
2022/12/03 06:51:04;;;;;;;0.10;0.10;;;2.20;99.90;;;;;;5066421;28;20607;-81
2022/12/03 06:53:30;;;;;;;0.03;0.03;;;2.20;99.90;;;;;;5066921;28;20600;-81
2022/12/03 06:55:55;;;;;;;0.10;0.10;;;2.20;99.90;;;;;;5066512;28;20594;-81
2022/12/03 06:58:21;;;;;;;0.10;0.10;;;2.20;99.90;;;;;;5065874;28;20541;-81
2022/12/03 07:00:47;;;;;;;0.00;0.00;;;2.20;99.90;;;;;;5068140;28;20185;-81
2022/12/03 07:03:12;;;;;;;0.00;0.00;;;2.20;99.90;;;;;;5065572;28;20262;-81
2022/12/03 07:05:38;;;;;;;0.03;0.03;;;2.20;99.90;;;;;;5083422;28;20211;-82
2022/12/03 07:08:04;;;;;;;0.00;0.00;;;2.10;99.90;;;;;;5065795;28;20190;-81
2022/12/03 07:10:30;;;;;;;0.00;0.00;;;2.20;99.90;;;;;;5067239;28;20221;-81
2022/12/03 07:12:55;;;;;;;0.10;0.10;;;2.30;99.90;;;;;;5066842;28;20280;-82
2022/12/03 07:15:21;;;;;;;0.10;0.10;;;2.20;99.90;;;;;;5065391;28;20259;-82
2022/12/03 07:17:46;;;;;;;0.10;0.10;;;2.20;99.90;;;;;;5065550;28;20209;-81
2022/12/03 07:20:12;;;;;;;0.10;0.10;;;2.30;99.90;;;;;;5065876;28;20256;-82
2022/12/03 07:22:38;;;;;;;0.10;0.10;;;2.30;99.90;;;;;;5065047;28;20287;-81
2022/12/03 07:25:04;;;;;;;0.10;0.10;;;2.30;99.90;;;;;;5064333;28;20302;-81
2022/12/03 07:27:30;;;;;;;0.10;0.10;;;2.30;99.90;;;;;;5066028;28;20231;-82
2022/12/03 07:29:55;;;;;;;0.20;0.20;;;2.30;99.90;;;;;;5067585;28;20204;-81
2022/12/03 07:32:21;;;;;;;0.10;0.10;;;2.30;99.90;;;;;;5064769;28;20338;-81
2022/12/03 07:34:46;;;;;;;0.10;0.10;;;2.30;99.90;;;;;;5066427;28;20211;-81
2022/12/03 07:37:12;;;;;;;0.00;0.00;;;2.40;99.90;;;;;;5062955;28;20197;-80
2022/12/03 07:39:37;;;;;;;0.10;0.10;;;2.50;99.90;;;;;;5065749;28;20280;-80
2022/12/03 07:42:03;;;;;;;0.10;0.10;;;2.50;99.90;;;;;;5059775;28;20650;-80
2022/12/03 07:44:30;;;;;;;0.10;0.10;;;2.50;99.90;;;;;;5062717;28;21266;-80
2022/12/03 07:46:58;;;;;;;0.10;0.10;;;2.50;99.90;;;;;;5063316;28;20706;-85
2022/12/03 07:49:23;;;;;;;0.10;0.10;;;2.50;99.90;;;;;;5062654;28;20180;-81
2022/12/03 07:51:56;;;;;;;0.10;0.10;;;2.60;99.90;;;;;;5061686;28;20244;-82
2022/12/03 07:54:23;;;;;;;0.10;0.10;;;2.60;99.90;;;;;;5064696;28;20276;-82
2022/12/03 07:56:48;;;;;;;0.00;0.00;;;2.50;99.90;;;;;;5061955;28;20206;-82
2022/12/03 07:59:15;;;;;;;0.10;0.10;;;2.50;99.90;;;;;;5063546;28;20598;-81
2022/12/03 08:01:40;;;;;;;0.10;0.10;;;2.70;99.90;;;;;;5060944;28;20225;-82
2022/12/03 08:04:06;;;;;;;0.10;0.10;;;2.70;99.90;;;;;;5065765;28;20190;-81
2022/12/03 08:06:31;;;;;;;0.10;0.10;;;2.70;99.90;;;;;;5065875;28;20198;-82
2022/12/03 08:08:57;;;;;;;0.10;0.10;;;2.60;99.90;;;;;;5065819;28;21119;-82
2022/12/03 08:11:22;;;;;;;0.10;0.10;;;2.60;99.90;;;;;;5065693;28;20235;-82
2022/12/03 08:13:48;;;;;;;0.10;0.10;;;2.60;99.90;;;;;;5066131;28;21006;-82
2022/12/03 08:16:17;;;;;;;4.50;1.60;;;2.70;99.90;;;;;;5065915;28;20297;-82
2022/12/03 08:18:44;;;;;;;0.00;0.00;;;2.80;99.90;;;;;;5065784;28;20177;-82
2022/12/03 08:21:15;;;;;;;0.10;0.10;;;2.80;99.90;;;;;;5065935;28;20742;-82
2022/12/03 08:23:42;;;;;;;0.10;0.10;;;2.80;99.90;;;;;;5067018;28;20182;-82
2022/12/03 08:26:27;;;;;;;0.00;0.00;;;2.80;99.90;;;;;;5066175;28;20421;-82
2022/12/03 08:28:53;;;;;;;0.10;0.10;;;2.80;99.90;;;;;;5067002;28;20185;-81
2022/12/03 08:31:24;;;;;;;1.07;1.03;;;2.60;99.90;;;;;;5065576;28;20670;-82
2022/12/03 08:33:58;;;;;;;0.13;0.13;;;2.60;99.90;;;;;;5082430;28;20206;-82
2022/12/03 08:36:29;;;;;;;0.10;0.10;;;2.50;99.90;;;;;;5067112;28;20208;-82
2022/12/03 08:38:57;;;;;;;0.10;0.10;;;2.80;99.90;;;;;;5068002;28;20658;-82
2022/12/03 08:44:19;;;;;;;0.10;0.10;;;2.60;99.90;;;;;;5068880;28;20706;-82
2022/12/03 08:47:08;;;;;;;0.00;0.00;;;2.70;99.90;;;;;;5064947;28;20246;-81
2022/12/03 08:49:37;;;;;;;0.10;0.10;;;2.80;99.90;;;;;;5069364;28;20271;-82
2022/12/03 08:52:13;;;;;;;0.10;0.10;;;2.80;99.90;;;;;;5070027;28;20204;-82
2022/12/03 08:54:40;;;;;;;0.10;0.10;;;2.80;99.90;;;;;;5069735;28;20260;-82
2022/12/03 08:57:31;;;;;;;0.03;0.03;;;2.80;99.90;;;;;;5084628;28;20189;-82
2022/12/03 08:59:59;;;;;;;0.10;0.10;;;2.70;99.90;;;;;;5083112;28;20430;-81
2022/12/03 09:02:33;;;;;;;0.10;0.10;;;2.80;99.90;;;;;;5067123;28;20177;-81
2022/12/03 09:05:12;;;;;;;0.10;0.10;;;3.00;99.90;;;;;;5065182;28;20226;-80
2022/12/03 09:07:38;;;;;;;0.10;0.10;;;2.90;99.90;;;;;;5067199;28;20185;-82
2022/12/03 09:10:04;;;;;;;0.10;0.10;;;3.00;99.90;;;;;;5064271;28;20570;-82
2022/12/03 09:12:29;;;;;;;0.10;0.10;;;3.00;99.90;;;;;;5065544;28;20187;-82
2022/12/03 09:14:55;;;;;;;0.03;0.03;;;3.00;99.90;;;;;;5064972;28;20223;-82
2022/12/03 09:17:20;;;;;;;0.10;0.10;;;3.10;99.90;;;;;;5065736;28;20216;-82
2022/12/03 09:19:46;;;;;;;0.10;0.10;;;3.10;99.90;;;;;;5064559;28;20958;-80
2022/12/03 09:22:12;;;;;;;0.10;0.10;;;2.80;99.90;;;;;;5065072;28;20191;-81
2022/12/03 09:24:38;;;;;;;0.00;0.00;;;2.90;99.90;;;;;;5059655;28;21172;-82
2022/12/03 09:27:04;;;;;;;0.00;0.00;;;3.00;99.90;;;;;;5061333;28;20194;-82
2022/12/03 09:29:29;;;;;;;0.10;0.10;;;3.10;99.90;;;;;;5063678;28;20189;-83
2022/12/03 09:31:55;;;;;;;0.10;0.10;;;3.10;99.90;;;;;;5061762;28;20184;-83
2022/12/03 09:34:20;;;;;;;0.07;0.07;;;2.90;99.90;;;;;;5063893;28;20436;-82
2022/12/03 09:36:46;;;;;;;0.10;0.10;;;3.00;99.90;;;;;;5062460;28;20212;-80
2022/12/03 09:39:11;;;;;;;0.10;0.10;;;3.10;99.90;;;;;;5058098;28;20195;-80
2022/12/03 09:41:37;;;;;;;0.10;0.10;;;3.00;99.90;;;;;;5060575;28;20189;-81
2022/12/03 09:44:03;;;;;;;0.10;0.10;;;3.00;99.90;;;;;;5062245;28;20254;-80
2022/12/03 09:46:29;;;;;;;0.03;0.03;;;3.10;99.90;;;;;;5063346;28;20217;-81
2022/12/03 09:48:54;;;;;;;0.10;0.10;;;3.20;99.90;;;;;;5065002;28;20306;-80
2022/12/03 09:51:20;;;;;;;2.90;2.80;;;3.20;99.90;;;;;;5062884;28;20183;-81
2022/12/03 09:53:46;;;;;;;0.10;0.10;;;3.10;99.90;;;;;;5062325;28;20227;-81
2022/12/03 09:56:21;;;;;;;0.10;0.10;;;3.20;99.90;;;;;;5064640;28;20798;-81
2022/12/03 09:58:47;;;;;;;0.00;0.00;;;3.30;99.90;;;;;;5064997;28;20580;-81
2022/12/03 10:01:14;;;;;;;0.10;0.10;;;3.20;99.90;;;;;;5079440;28;20667;-81
2022/12/03 10:03:45;;;;;;;0.10;0.10;;;3.20;99.90;;;;;;5064729;28;20178;-79
2022/12/03 10:06:19;;;;;;;4.27;3.90;;;3.30;99.90;;;;;;5067613;28;20203;-79
2022/12/03 10:08:48;;;;;;;0.10;0.10;;;3.30;99.90;;;;;;5066448;28;20182;-80
2022/12/03 10:11:14;;;;;;;0.10;0.10;;;3.30;99.90;;;;;;5082546;28;20962;-80
2022/12/03 10:13:40;;;;;;;0.03;0.03;;;3.30;99.90;;;;;;5067764;28;20226;-80
2022/12/03 10:16:10;;;;;;;0.10;0.10;;;3.40;99.90;;;;;;5068299;28;20249;-79
2022/12/03 10:18:40;;;;;;;0.00;0.00;;;3.40;99.90;;;;;;5068541;28;20171;-80
2022/12/03 10:21:24;;;;;;;0.10;0.10;;;3.50;99.90;;;;;;5067564;28;20183;-80
2022/12/03 10:24:17;;;;;;;0.10;0.10;;;3.50;99.90;;;;;;5069113;28;20233;-80
2022/12/03 10:26:44;;;;;;;0.10;0.10;;;3.50;99.90;;;;;;5066974;28;20235;-80
2022/12/03 10:29:20;;;;;;;0.10;0.10;;;3.50;99.90;;;;;;5066930;28;20193;-80
2022/12/03 10:32:03;;;;;;;0.10;0.10;;;3.50;99.90;;;;;;5067600;28;20204;-79
2022/12/03 10:34:35;;;;;;;0.10;0.10;;;3.60;99.90;;;;;;5066620;28;20563;-79
2022/12/03 10:37:19;;;;;;;0.00;0.00;;;3.60;99.90;;;;;;5066291;28;20184;-79
2022/12/03 10:39:58;;;;;;;0.93;0.77;;;3.50;99.90;;;;;;5064099;28;20188;-79
2022/12/03 10:42:30;;;;;;;0.10;0.10;;;3.50;99.90;;;;;;5065706;28;20200;-80
2022/12/03 10:45:13;;;;;;;0.27;0.27;;;3.60;99.90;;;;;;5066856;28;20208;-81
2022/12/03 10:47:39;;;;;;;0.27;0.27;;;3.50;99.90;;;;;;5077424;28;20582;-82
2022/12/03 10:50:15;;;;;;;0.10;0.10;;;3.60;99.90;;;;;;5064469;28;20226;-81
2022/12/03 10:52:41;;;;;;;0.10;0.10;;;3.40;99.90;;;;;;5075035;28;20211;-81
2022/12/03 10:55:10;;;;;;;0.10;0.10;;;3.50;99.90;;;;;;5062551;28;20324;-80
2022/12/03 10:57:36;;;;;;;0.00;0.00;;;3.60;99.90;;;;;;5068879;28;20175;-81
2022/12/03 11:00:03;;;;;;;0.10;0.10;;;3.80;99.90;;;;;;5067727;28;20194;-80
2022/12/03 11:02:29;;;;;;;0.10;0.10;;;3.80;99.90;;;;;;5067544;28;20204;-80
2022/12/03 11:04:54;;;;;;;0.10;0.10;;;3.80;99.90;;;;;;5068129;28;20903;-81
2022/12/03 11:07:21;;;;;;;0.10;0.10;;;3.80;99.90;;;;;;5067815;28;20191;-79
2022/12/03 11:09:49;;;;;;;0.10;0.10;;;3.80;99.90;;;;;;5067354;28;20201;-81
2022/12/03 11:12:25;;;;;;;0.10;0.10;;;3.70;99.90;;;;;;5067280;28;20177;-81
2022/12/03 11:14:51;;;;;;;0.00;0.00;;;3.70;99.90;;;;;;5068416;28;20262;-81
2022/12/03 11:17:43;;;;;;;0.10;0.10;;;3.60;99.90;;;;;;5069982;28;20203;-81
2022/12/03 11:20:21;;;;;;;0.30;0.30;;;3.60;99.90;;;;;;5069955;28;20293;-81
2022/12/03 11:22:49;;;;;;;0.10;0.10;;;3.40;99.90;;;;;;5066328;28;20181;-81
2022/12/03 11:25:23;;;;;;;0.00;0.00;;;3.60;99.90;;;;;;5068342;28;20297;-81
2022/12/03 11:28:11;;;;;;;0.10;0.10;;;3.70;99.90;;;;;;5069732;28;20214;-81
2022/12/03 11:30:52;;;;;;;0.00;0.00;;;3.80;99.90;;;;;;5068794;28;20184;-81
2022/12/03 11:33:25;;;;;;;0.10;0.10;;;3.60;99.90;;;;;;5069167;28;20187;-81
2022/12/03 11:36:10;;;;;;;0.10;0.10;;;3.60;99.90;;;;;;5085212;28;20218;-80
2022/12/03 11:38:49;;;;;;;0.10;0.10;;;3.70;99.90;;;;;;5072450;28;20181;-81
2022/12/03 11:41:14;;;;;;;0.10;0.10;;;3.60;99.90;;;;;;5071378;28;20187;-81
2022/12/03 11:43:52;;;;;;;0.20;0.20;;;3.60;99.90;;;;;;5071932;28;20192;-80
2022/12/03 11:46:37;;;;;;;0.10;0.10;;;3.60;99.90;;;;;;5068936;28;20678;-81
2022/12/03 11:49:20;;;;;;;0.00;0.00;;;3.50;99.90;;;;;;5072673;28;20343;-81
2022/12/03 11:51:46;;;;;;;0.10;0.10;;;3.40;99.90;;;;;;5071699;28;20187;-81
2022/12/03 11:54:17;;;;;;;11.80;10.83;;;3.50;99.90;;;;;;5088005;28;20195;-82
2022/12/03 11:56:44;;;;;;;0.10;0.10;;;3.40;99.90;;;;;;5069161;28;20336;-82
2022/12/03 11:59:11;;;;;;;0.10;0.10;;;3.40;99.90;;;;;;5069700;28;20176;-82
2022/12/03 12:01:40;;;;;;;0.10;0.10;;;3.50;99.90;;;;;;5069284;28;20190;-81
2022/12/03 12:04:24;;;;;;;0.10;0.10;;;3.50;99.90;;;;;;5070345;28;20217;-81
2022/12/03 12:06:50;;;;;;;0.10;0.10;;;3.40;99.90;;;;;;5088397;28;20205;-81
2022/12/03 12:09:49;;;;;;;0.10;0.10;;;3.40;99.90;;;;;;5069764;28;20188;-81
2022/12/03 12:12:38;;;;;;;0.00;0.00;;;3.40;99.90;;;;;;5070541;28;20192;-81
2022/12/03 12:15:41;;;;;;;2.40;2.33;;;3.30;99.90;;;;;;5069228;28;20217;-82
2022/12/03 12:18:45;;;;;;;0.10;0.10;;;3.40;99.90;;;;;;5071877;28;20256;-82
2022/12/03 12:21:47;;;;;;;8.43;8.00;;;3.40;99.90;;;;;;5072239;28;20350;-81
2022/12/03 12:24:45;;;;;;;7.73;7.33;;;3.40;99.90;;;;;;5071868;28;20541;-81
2022/12/03 12:27:15;;;;;;;0.10;0.10;;;3.40;99.90;;;;;;5072351;28;20238;-82
2022/12/03 12:29:45;;;;;;;0.10;0.10;;;3.40;99.90;;;;;;5074190;28;20177;-83
2022/12/03 12:32:16;;;;;;;3.17;2.97;;;3.40;99.90;;;;;;5070789;28;20189;-82
2022/12/03 12:34:47;;;;;;;0.10;0.10;;;3.40;99.90;;;;;;5073174;28;20649;-83
2022/12/03 12:37:18;;;;;;;0.10;0.10;;;3.30;99.90;;;;;;5074154;28;20186;-82
2022/12/03 12:39:44;;;;;;;0.07;0.07;;;3.40;99.90;;;;;;5072278;28;20173;-83
2022/12/03 12:42:29;;;;;;;0.10;0.10;;;3.40;99.90;;;;;;5072174;28;20185;-82
2022/12/03 12:45:00;;;;;;;0.07;0.07;;;3.50;99.90;;;;;;5070282;28;20364;-83
2022/12/03 12:47:28;;;;;;;0.10;0.10;;;3.60;99.90;;;;;;5070564;28;20187;-83
2022/12/03 12:49:54;;;;;;;0.00;0.00;;;3.60;99.90;;;;;;5067821;28;20202;-83
2022/12/03 12:52:20;;;;;;;0.10;0.10;;;3.60;99.90;;;;;;5070513;28;20227;-82
2022/12/03 12:54:45;;;;;;;0.10;0.10;;;3.60;99.90;;;;;;5068609;28;20227;-82
2022/12/03 12:57:21;;;;;;;0.10;0.10;;;3.50;99.90;;;;;;5070377;28;20190;-81
2022/12/03 12:59:47;;;;;;;0.10;0.10;;;3.40;99.90;;;;;;5070635;28;20173;-81
2022/12/03 13:02:24;;;;;;;0.00;0.00;;;3.50;99.90;;;;;;5070829;28;20181;-81
2022/12/03 13:04:50;;;;;;;0.10;0.10;;;3.50;99.90;;;;;;5069766;28;20248;-80
2022/12/03 13:07:16;;;;;;;0.10;0.10;;;3.40;99.90;;;;;;5069811;28;20285;-85
2022/12/03 13:09:41;;;;;;;0.10;0.10;;;3.30;99.90;;;;;;5070364;28;20202;-81
2022/12/03 13:12:19;;;;;;;0.10;0.10;;;3.30;99.90;;;;;;5067612;28;20244;-82
2022/12/03 13:14:45;;;;;;;0.10;0.10;;;3.40;99.90;;;;;;5067883;28;20214;-80
2022/12/03 13:17:23;;;;;;;0.10;0.10;;;3.30;99.90;;;;;;5068648;28;20395;-81
2022/12/03 13:19:49;;;;;;;0.10;0.10;;;3.40;99.90;;;;;;5068537;28;20267;-81
2022/12/03 13:22:19;;;;;;;7.83;3.80;;;3.40;99.90;;;;;;5069887;28;20194;-81
2022/12/03 13:24:47;;;;;;;0.00;0.00;;;3.40;99.90;;;;;;5067031;28;20210;-82
2022/12/03 13:27:21;;;;;;;0.00;0.00;;;3.40;99.90;;;;;;5066238;28;20730;-82